sensor_id;sensor_type;location;lat;lon;timestamp;P1;durP1;ratioP1;P2;durP2;ratioP2
62633;SDS011;48704;50.534;6.442;2023-06-19T00:01:42;10.18;;;6.20;;
62633;SDS011;48704;50.534;6.442;2023-06-19T00:04:07;8.88;;;6.32;;
62633;SDS011;48704;50.534;6.442;2023-06-19T00:06:32;8.20;;;5.85;;
62633;SDS011;48704;50.534;6.442;2023-06-19T00:08:58;7.50;;;5.78;;
62633;SDS011;48704;50.534;6.442;2023-06-19T00:11:23;7.05;;;5.68;;
62633;SDS011;48704;50.534;6.442;2023-06-19T00:13:49;7.97;;;5.78;;
62633;SDS011;48704;50.534;6.442;2023-06-19T00:16:14;9.15;;;5.72;;
62633;SDS011;48704;50.534;6.442;2023-06-19T00:18:40;8.07;;;5.95;;
62633;SDS011;48704;50.534;6.442;2023-06-19T00:21:06;7.30;;;5.57;;
62633;SDS011;48704;50.534;6.442;2023-06-19T00:23:32;8.40;;;5.38;;
62633;SDS011;48704;50.534;6.442;2023-06-19T00:25:58;8.15;;;5.85;;
62633;SDS011;48704;50.534;6.442;2023-06-19T00:28:26;8.35;;;5.57;;
62633;SDS011;48704;50.534;6.442;2023-06-19T00:30:51;9.80;;;6.20;;
62633;SDS011;48704;50.534;6.442;2023-06-19T00:33:16;7.47;;;5.57;;
62633;SDS011;48704;50.534;6.442;2023-06-19T00:35:42;9.15;;;5.88;;
62633;SDS011;48704;50.534;6.442;2023-06-19T00:38:07;7.68;;;5.32;;
62633;SDS011;48704;50.534;6.442;2023-06-19T00:40:33;7.53;;;5.70;;
62633;SDS011;48704;50.534;6.442;2023-06-19T00:42:59;8.90;;;6.15;;
62633;SDS011;48704;50.534;6.442;2023-06-19T00:45:25;8.85;;;6.18;;
62633;SDS011;48704;50.534;6.442;2023-06-19T00:47:54;9.20;;;6.20;;
62633;SDS011;48704;50.534;6.442;2023-06-19T00:50:23;8.88;;;6.00;;
62633;SDS011;48704;50.534;6.442;2023-06-19T00:52:49;8.70;;;6.28;;
62633;SDS011;48704;50.534;6.442;2023-06-19T00:55:15;7.82;;;6.10;;
62633;SDS011;48704;50.534;6.442;2023-06-19T00:57:41;9.13;;;5.97;;
62633;SDS011;48704;50.534;6.442;2023-06-19T01:00:07;7.82;;;6.00;;
62633;SDS011;48704;50.534;6.442;2023-06-19T01:02:34;7.20;;;5.85;;
62633;SDS011;48704;50.534;6.442;2023-06-19T01:05:00;9.48;;;6.30;;
62633;SDS011;48704;50.534;6.442;2023-06-19T01:07:38;9.60;;;6.22;;
62633;SDS011;48704;50.534;6.442;2023-06-19T01:10:12;8.23;;;6.03;;
62633;SDS011;48704;50.534;6.442;2023-06-19T01:12:44;8.32;;;6.18;;
62633;SDS011;48704;50.534;6.442;2023-06-19T01:15:15;11.93;;;6.05;;
62633;SDS011;48704;50.534;6.442;2023-06-19T01:17:42;8.32;;;6.05;;
62633;SDS011;48704;50.534;6.442;2023-06-19T01:20:09;8.73;;;5.88;;
62633;SDS011;48704;50.534;6.442;2023-06-19T01:22:36;7.00;;;5.43;;
62633;SDS011;48704;50.534;6.442;2023-06-19T01:25:01;9.35;;;5.90;;
62633;SDS011;48704;50.534;6.442;2023-06-19T01:27:29;7.47;;;6.28;;
62633;SDS011;48704;50.534;6.442;2023-06-19T01:29:55;8.35;;;6.25;;
62633;SDS011;48704;50.534;6.442;2023-06-19T01:32:26;8.13;;;5.80;;
62633;SDS011;48704;50.534;6.442;2023-06-19T01:35:13;8.48;;;5.82;;
62633;SDS011;48704;50.534;6.442;2023-06-19T01:37:42;7.47;;;5.82;;
62633;SDS011;48704;50.534;6.442;2023-06-19T01:40:08;7.43;;;6.13;;
62633;SDS011;48704;50.534;6.442;2023-06-19T01:42:37;9.70;;;6.72;;
62633;SDS011;48704;50.534;6.442;2023-06-19T01:45:04;8.50;;;5.85;;
62633;SDS011;48704;50.534;6.442;2023-06-19T01:47:30;7.47;;;5.97;;
62633;SDS011;48704;50.534;6.442;2023-06-19T01:49:56;8.27;;;6.55;;
62633;SDS011;48704;50.534;6.442;2023-06-19T01:52:21;7.15;;;5.20;;
62633;SDS011;48704;50.534;6.442;2023-06-19T01:54:47;9.00;;;6.43;;
62633;SDS011;48704;50.534;6.442;2023-06-19T01:57:12;9.38;;;6.28;;
62633;SDS011;48704;50.534;6.442;2023-06-19T01:59:37;7.55;;;5.93;;
62633;SDS011;48704;50.534;6.442;2023-06-19T02:02:03;9.60;;;6.00;;
62633;SDS011;48704;50.534;6.442;2023-06-19T02:04:29;8.65;;;5.85;;
62633;SDS011;48704;50.534;6.442;2023-06-19T02:06:54;8.02;;;5.88;;
62633;SDS011;48704;50.534;6.442;2023-06-19T02:09:20;8.50;;;5.82;;
62633;SDS011;48704;50.534;6.442;2023-06-19T02:11:45;8.55;;;6.72;;
62633;SDS011;48704;50.534;6.442;2023-06-19T02:14:10;8.38;;;6.22;;
62633;SDS011;48704;50.534;6.442;2023-06-19T02:16:36;9.32;;;6.55;;
62633;SDS011;48704;50.534;6.442;2023-06-19T02:19:01;7.82;;;5.72;;
62633;SDS011;48704;50.534;6.442;2023-06-19T02:21:27;8.25;;;5.93;;
62633;SDS011;48704;50.534;6.442;2023-06-19T02:23:53;8.60;;;6.20;;
62633;SDS011;48704;50.534;6.442;2023-06-19T02:26:18;9.00;;;6.32;;
62633;SDS011;48704;50.534;6.442;2023-06-19T02:28:44;7.70;;;5.85;;
62633;SDS011;48704;50.534;6.442;2023-06-19T02:31:09;8.57;;;6.30;;
62633;SDS011;48704;50.534;6.442;2023-06-19T02:33:34;8.85;;;5.95;;
62633;SDS011;48704;50.534;6.442;2023-06-19T02:36:00;8.20;;;5.75;;
62633;SDS011;48704;50.534;6.442;2023-06-19T02:38:26;7.30;;;5.28;;
62633;SDS011;48704;50.534;6.442;2023-06-19T02:40:54;8.57;;;5.80;;
62633;SDS011;48704;50.534;6.442;2023-06-19T02:43:22;8.45;;;6.43;;
62633;SDS011;48704;50.534;6.442;2023-06-19T02:45:47;8.50;;;6.18;;
62633;SDS011;48704;50.534;6.442;2023-06-19T02:48:13;9.52;;;5.95;;
62633;SDS011;48704;50.534;6.442;2023-06-19T02:50:38;6.53;;;5.18;;
62633;SDS011;48704;50.534;6.442;2023-06-19T02:53:03;10.57;;;6.40;;
62633;SDS011;48704;50.534;6.442;2023-06-19T02:55:29;8.82;;;6.15;;
62633;SDS011;48704;50.534;6.442;2023-06-19T02:57:54;7.88;;;6.15;;
62633;SDS011;48704;50.534;6.442;2023-06-19T03:00:19;9.20;;;5.60;;
62633;SDS011;48704;50.534;6.442;2023-06-19T03:02:45;9.98;;;6.20;;
62633;SDS011;48704;50.534;6.442;2023-06-19T03:05:13;8.23;;;5.90;;
62633;SDS011;48704;50.534;6.442;2023-06-19T03:07:40;9.55;;;6.18;;
62633;SDS011;48704;50.534;6.442;2023-06-19T03:10:06;6.90;;;5.40;;
62633;SDS011;48704;50.534;6.442;2023-06-19T03:12:32;8.38;;;6.30;;
62633;SDS011;48704;50.534;6.442;2023-06-19T03:14:57;8.05;;;6.43;;
62633;SDS011;48704;50.534;6.442;2023-06-19T03:17:22;9.55;;;6.15;;
62633;SDS011;48704;50.534;6.442;2023-06-19T03:19:48;8.32;;;6.10;;
62633;SDS011;48704;50.534;6.442;2023-06-19T03:22:13;9.32;;;6.13;;
62633;SDS011;48704;50.534;6.442;2023-06-19T03:24:38;8.07;;;6.00;;
62633;SDS011;48704;50.534;6.442;2023-06-19T03:27:03;10.13;;;6.75;;
62633;SDS011;48704;50.534;6.442;2023-06-19T03:29:29;10.32;;;6.97;;
62633;SDS011;48704;50.534;6.442;2023-06-19T03:31:54;9.32;;;6.28;;
62633;SDS011;48704;50.534;6.442;2023-06-19T03:34:19;8.40;;;6.18;;
62633;SDS011;48704;50.534;6.442;2023-06-19T03:36:45;10.98;;;6.93;;
62633;SDS011;48704;50.534;6.442;2023-06-19T03:39:10;7.88;;;6.50;;
62633;SDS011;48704;50.534;6.442;2023-06-19T03:41:35;10.35;;;7.03;;
62633;SDS011;48704;50.534;6.442;2023-06-19T03:44:01;10.65;;;7.40;;
62633;SDS011;48704;50.534;6.442;2023-06-19T03:46:26;10.35;;;6.78;;
62633;SDS011;48704;50.534;6.442;2023-06-19T03:48:51;9.35;;;6.88;;
62633;SDS011;48704;50.534;6.442;2023-06-19T03:51:16;9.77;;;6.90;;
62633;SDS011;48704;50.534;6.442;2023-06-19T03:53:42;8.48;;;5.97;;
62633;SDS011;48704;50.534;6.442;2023-06-19T03:56:07;9.23;;;6.57;;
62633;SDS011;48704;50.534;6.442;2023-06-19T03:58:33;11.90;;;7.60;;
62633;SDS011;48704;50.534;6.442;2023-06-19T04:00:58;7.90;;;5.80;;
62633;SDS011;48704;50.534;6.442;2023-06-19T04:03:23;11.25;;;7.75;;
62633;SDS011;48704;50.534;6.442;2023-06-19T04:05:48;9.88;;;6.78;;
62633;SDS011;48704;50.534;6.442;2023-06-19T04:08:14;10.82;;;7.25;;
62633;SDS011;48704;50.534;6.442;2023-06-19T04:10:40;11.25;;;7.50;;
62633;SDS011;48704;50.534;6.442;2023-06-19T04:13:05;10.00;;;6.43;;
62633;SDS011;48704;50.534;6.442;2023-06-19T04:15:32;12.52;;;7.55;;
62633;SDS011;48704;50.534;6.442;2023-06-19T04:17:57;9.82;;;7.07;;
62633;SDS011;48704;50.534;6.442;2023-06-19T04:20:23;12.13;;;6.93;;
62633;SDS011;48704;50.534;6.442;2023-06-19T04:22:48;9.20;;;6.28;;
62633;SDS011;48704;50.534;6.442;2023-06-19T04:25:13;9.50;;;7.20;;
62633;SDS011;48704;50.534;6.442;2023-06-19T04:27:39;11.25;;;6.78;;
62633;SDS011;48704;50.534;6.442;2023-06-19T04:30:05;8.75;;;6.20;;
62633;SDS011;48704;50.534;6.442;2023-06-19T04:32:31;9.95;;;6.40;;
62633;SDS011;48704;50.534;6.442;2023-06-19T04:34:57;13.50;;;6.22;;
62633;SDS011;48704;50.534;6.442;2023-06-19T04:37:22;8.68;;;5.85;;
62633;SDS011;48704;50.534;6.442;2023-06-19T04:39:48;12.57;;;6.40;;
62633;SDS011;48704;50.534;6.442;2023-06-19T04:42:13;7.18;;;5.28;;
62633;SDS011;48704;50.534;6.442;2023-06-19T04:44:45;7.20;;;5.22;;
62633;SDS011;48704;50.534;6.442;2023-06-19T04:47:11;8.77;;;5.45;;
62633;SDS011;48704;50.534;6.442;2023-06-19T04:49:36;7.80;;;5.22;;
62633;SDS011;48704;50.534;6.442;2023-06-19T04:52:01;8.05;;;5.97;;
62633;SDS011;48704;50.534;6.442;2023-06-19T04:54:28;9.35;;;5.00;;
62633;SDS011;48704;50.534;6.442;2023-06-19T04:56:53;8.55;;;5.13;;
62633;SDS011;48704;50.534;6.442;2023-06-19T04:59:19;14.93;;;5.38;;
62633;SDS011;48704;50.534;6.442;2023-06-19T05:01:44;7.35;;;4.80;;
62633;SDS011;48704;50.534;6.442;2023-06-19T05:04:09;8.10;;;5.32;;
62633;SDS011;48704;50.534;6.442;2023-06-19T05:06:36;7.35;;;4.40;;
62633;SDS011;48704;50.534;6.442;2023-06-19T05:09:02;8.48;;;5.50;;
62633;SDS011;48704;50.534;6.442;2023-06-19T05:11:27;7.07;;;4.38;;
62633;SDS011;48704;50.534;6.442;2023-06-19T05:13:52;7.07;;;4.40;;
62633;SDS011;48704;50.534;6.442;2023-06-19T05:16:18;8.57;;;4.78;;
62633;SDS011;48704;50.534;6.442;2023-06-19T05:18:44;5.38;;;4.03;;
62633;SDS011;48704;50.534;6.442;2023-06-19T05:21:10;6.82;;;4.40;;
62633;SDS011;48704;50.534;6.442;2023-06-19T05:23:35;8.70;;;4.25;;
62633;SDS011;48704;50.534;6.442;2023-06-19T05:26:00;6.43;;;4.20;;
62633;SDS011;48704;50.534;6.442;2023-06-19T05:28:25;5.90;;;4.20;;
62633;SDS011;48704;50.534;6.442;2023-06-19T05:30:51;6.80;;;4.07;;
62633;SDS011;48704;50.534;6.442;2023-06-19T05:33:16;6.35;;;3.60;;
62633;SDS011;48704;50.534;6.442;2023-06-19T05:35:42;5.90;;;3.80;;
62633;SDS011;48704;50.534;6.442;2023-06-19T05:38:08;5.30;;;2.90;;
62633;SDS011;48704;50.534;6.442;2023-06-19T05:40:33;6.05;;;3.50;;
62633;SDS011;48704;50.534;6.442;2023-06-19T05:42:59;4.25;;;2.92;;
62633;SDS011;48704;50.534;6.442;2023-06-19T05:45:24;5.47;;;3.15;;
62633;SDS011;48704;50.534;6.442;2023-06-19T05:47:49;5.07;;;2.95;;
62633;SDS011;48704;50.534;6.442;2023-06-19T05:50:15;5.45;;;3.03;;
62633;SDS011;48704;50.534;6.442;2023-06-19T05:52:40;5.82;;;3.50;;
62633;SDS011;48704;50.534;6.442;2023-06-19T05:55:08;5.40;;;2.97;;
62633;SDS011;48704;50.534;6.442;2023-06-19T05:57:34;4.30;;;2.75;;
62633;SDS011;48704;50.534;6.442;2023-06-19T05:59:59;5.15;;;2.70;;
62633;SDS011;48704;50.534;6.442;2023-06-19T06:02:24;6.45;;;2.42;;
62633;SDS011;48704;50.534;6.442;2023-06-19T06:04:50;3.55;;;2.33;;
62633;SDS011;48704;50.534;6.442;2023-06-19T06:07:16;3.00;;;1.88;;
62633;SDS011;48704;50.534;6.442;2023-06-19T06:09:41;3.53;;;1.90;;
62633;SDS011;48704;50.534;6.442;2023-06-19T06:12:06;2.80;;;1.63;;
62633;SDS011;48704;50.534;6.442;2023-06-19T06:14:32;2.42;;;1.40;;
62633;SDS011;48704;50.534;6.442;2023-06-19T06:16:58;3.83;;;2.17;;
62633;SDS011;48704;50.534;6.442;2023-06-19T06:19:23;4.07;;;1.63;;
62633;SDS011;48704;50.534;6.442;2023-06-19T06:21:49;3.13;;;1.63;;
62633;SDS011;48704;50.534;6.442;2023-06-19T06:24:14;3.20;;;1.60;;
62633;SDS011;48704;50.534;6.442;2023-06-19T06:26:40;4.82;;;1.52;;
62633;SDS011;48704;50.534;6.442;2023-06-19T06:29:06;3.05;;;1.50;;
62633;SDS011;48704;50.534;6.442;2023-06-19T06:31:31;2.75;;;1.38;;
62633;SDS011;48704;50.534;6.442;2023-06-19T06:33:57;2.33;;;1.38;;
62633;SDS011;48704;50.534;6.442;2023-06-19T06:36:22;2.72;;;1.52;;
62633;SDS011;48704;50.534;6.442;2023-06-19T06:38:47;3.53;;;1.80;;
62633;SDS011;48704;50.534;6.442;2023-06-19T06:41:13;3.33;;;1.20;;
62633;SDS011;48704;50.534;6.442;2023-06-19T06:43:39;2.42;;;1.17;;
62633;SDS011;48704;50.534;6.442;2023-06-19T06:46:07;3.40;;;1.60;;
62633;SDS011;48704;50.534;6.442;2023-06-19T06:48:32;2.58;;;1.30;;
62633;SDS011;48704;50.534;6.442;2023-06-19T06:50:58;2.53;;;1.45;;
62633;SDS011;48704;50.534;6.442;2023-06-19T06:53:27;2.85;;;1.40;;
62633;SDS011;48704;50.534;6.442;2023-06-19T06:55:57;2.80;;;1.55;;
62633;SDS011;48704;50.534;6.442;2023-06-19T06:58:23;3.75;;;2.22;;
62633;SDS011;48704;50.534;6.442;2023-06-19T07:00:48;2.90;;;1.50;;
62633;SDS011;48704;50.534;6.442;2023-06-19T07:03:15;3.28;;;1.83;;
62633;SDS011;48704;50.534;6.442;2023-06-19T07:05:41;2.92;;;1.60;;
62633;SDS011;48704;50.534;6.442;2023-06-19T07:08:06;2.85;;;1.67;;
62633;SDS011;48704;50.534;6.442;2023-06-19T07:10:32;2.50;;;1.50;;
62633;SDS011;48704;50.534;6.442;2023-06-19T07:12:57;4.25;;;1.58;;
62633;SDS011;48704;50.534;6.442;2023-06-19T07:15:22;2.78;;;1.50;;
62633;SDS011;48704;50.534;6.442;2023-06-19T07:17:47;3.53;;;2.10;;
62633;SDS011;48704;50.534;6.442;2023-06-19T07:20:13;3.85;;;2.10;;
62633;SDS011;48704;50.534;6.442;2023-06-19T07:22:39;3.58;;;1.88;;
62633;SDS011;48704;50.534;6.442;2023-06-19T07:25:05;3.83;;;1.70;;
62633;SDS011;48704;50.534;6.442;2023-06-19T07:27:30;3.92;;;2.00;;
62633;SDS011;48704;50.534;6.442;2023-06-19T07:29:56;3.47;;;2.10;;
62633;SDS011;48704;50.534;6.442;2023-06-19T07:32:21;3.85;;;2.20;;
62633;SDS011;48704;50.534;6.442;2023-06-19T07:34:46;3.70;;;2.05;;
62633;SDS011;48704;50.534;6.442;2023-06-19T07:37:12;3.88;;;2.10;;
62633;SDS011;48704;50.534;6.442;2023-06-19T07:39:43;2.95;;;1.67;;
62633;SDS011;48704;50.534;6.442;2023-06-19T07:42:09;5.03;;;2.10;;
62633;SDS011;48704;50.534;6.442;2023-06-19T07:44:35;3.67;;;2.25;;
62633;SDS011;48704;50.534;6.442;2023-06-19T07:47:00;4.07;;;2.25;;
62633;SDS011;48704;50.534;6.442;2023-06-19T07:49:26;3.42;;;2.03;;
62633;SDS011;48704;50.534;6.442;2023-06-19T07:51:51;7.38;;;2.30;;
62633;SDS011;48704;50.534;6.442;2023-06-19T07:54:16;3.78;;;2.28;;
62633;SDS011;48704;50.534;6.442;2023-06-19T07:56:42;6.15;;;2.72;;
62633;SDS011;48704;50.534;6.442;2023-06-19T07:59:07;3.95;;;2.42;;
62633;SDS011;48704;50.534;6.442;2023-06-19T08:01:32;4.25;;;2.55;;
62633;SDS011;48704;50.534;6.442;2023-06-19T08:03:57;4.63;;;2.47;;
62633;SDS011;48704;50.534;6.442;2023-06-19T08:06:23;3.80;;;2.33;;
62633;SDS011;48704;50.534;6.442;2023-06-19T08:08:48;3.35;;;1.98;;
62633;SDS011;48704;50.534;6.442;2023-06-19T08:11:13;5.18;;;2.40;;
62633;SDS011;48704;50.534;6.442;2023-06-19T08:13:38;3.88;;;2.33;;
62633;SDS011;48704;50.534;6.442;2023-06-19T08:16:04;8.55;;;2.78;;
62633;SDS011;48704;50.534;6.442;2023-06-19T08:18:30;5.38;;;2.80;;
62633;SDS011;48704;50.534;6.442;2023-06-19T08:20:55;5.18;;;2.25;;
62633;SDS011;48704;50.534;6.442;2023-06-19T08:23:20;4.85;;;2.53;;
62633;SDS011;48704;50.534;6.442;2023-06-19T08:25:45;3.88;;;2.28;;
62633;SDS011;48704;50.534;6.442;2023-06-19T08:28:11;4.85;;;2.95;;
62633;SDS011;48704;50.534;6.442;2023-06-19T08:30:36;3.72;;;2.47;;
62633;SDS011;48704;50.534;6.442;2023-06-19T08:33:01;3.83;;;2.38;;
62633;SDS011;48704;50.534;6.442;2023-06-19T08:35:27;5.13;;;2.88;;
62633;SDS011;48704;50.534;6.442;2023-06-19T08:37:52;3.63;;;2.30;;
62633;SDS011;48704;50.534;6.442;2023-06-19T08:40:17;5.18;;;2.80;;
62633;SDS011;48704;50.534;6.442;2023-06-19T08:42:44;4.97;;;2.47;;
62633;SDS011;48704;50.534;6.442;2023-06-19T08:45:09;5.35;;;3.03;;
62633;SDS011;48704;50.534;6.442;2023-06-19T08:47:35;4.85;;;2.75;;
62633;SDS011;48704;50.534;6.442;2023-06-19T08:50:00;7.00;;;3.03;;
62633;SDS011;48704;50.534;6.442;2023-06-19T08:52:26;4.93;;;2.65;;
62633;SDS011;48704;50.534;6.442;2023-06-19T08:54:51;4.55;;;2.58;;
62633;SDS011;48704;50.534;6.442;2023-06-19T08:57:17;5.45;;;2.83;;
62633;SDS011;48704;50.534;6.442;2023-06-19T08:59:48;4.88;;;2.53;;
62633;SDS011;48704;50.534;6.442;2023-06-19T09:02:15;4.15;;;2.70;;
62633;SDS011;48704;50.534;6.442;2023-06-19T09:04:41;5.13;;;2.75;;
62633;SDS011;48704;50.534;6.442;2023-06-19T09:07:07;4.43;;;2.70;;
62633;SDS011;48704;50.534;6.442;2023-06-19T09:09:33;4.18;;;2.65;;
62633;SDS011;48704;50.534;6.442;2023-06-19T09:12:00;4.07;;;2.53;;
62633;SDS011;48704;50.534;6.442;2023-06-19T09:16:58;4.15;;;2.40;;
62633;SDS011;48704;50.534;6.442;2023-06-19T09:19:24;5.72;;;2.72;;
62633;SDS011;48704;50.534;6.442;2023-06-19T09:21:49;5.03;;;2.78;;
62633;SDS011;48704;50.534;6.442;2023-06-19T09:24:14;4.88;;;2.63;;
62633;SDS011;48704;50.534;6.442;2023-06-19T09:26:40;6.45;;;3.10;;
62633;SDS011;48704;50.534;6.442;2023-06-19T09:29:14;4.68;;;3.22;;
62633;SDS011;48704;50.534;6.442;2023-06-19T09:31:44;6.25;;;3.35;;
62633;SDS011;48704;50.534;6.442;2023-06-19T09:34:09;6.30;;;2.78;;
62633;SDS011;48704;50.534;6.442;2023-06-19T09:36:35;4.28;;;2.90;;
62633;SDS011;48704;50.534;6.442;2023-06-19T09:39:04;5.20;;;2.85;;
62633;SDS011;48704;50.534;6.442;2023-06-19T09:41:30;6.47;;;2.97;;
62633;SDS011;48704;50.534;6.442;2023-06-19T09:43:56;5.25;;;2.80;;
62633;SDS011;48704;50.534;6.442;2023-06-19T09:46:23;5.25;;;2.85;;
62633;SDS011;48704;50.534;6.442;2023-06-19T09:48:55;5.65;;;3.55;;
62633;SDS011;48704;50.534;6.442;2023-06-19T09:51:31;7.07;;;2.92;;
62633;SDS011;48704;50.534;6.442;2023-06-19T09:54:01;7.07;;;3.53;;
62633;SDS011;48704;50.534;6.442;2023-06-19T09:56:29;6.60;;;3.50;;
62633;SDS011;48704;50.534;6.442;2023-06-19T09:58:56;5.28;;;2.70;;
62633;SDS011;48704;50.534;6.442;2023-06-19T10:01:25;6.57;;;3.20;;
62633;SDS011;48704;50.534;6.442;2023-06-19T10:04:03;4.38;;;2.78;;
62633;SDS011;48704;50.534;6.442;2023-06-19T10:06:33;5.22;;;3.15;;
62633;SDS011;48704;50.534;6.442;2023-06-19T10:09:08;4.57;;;2.70;;
62633;SDS011;48704;50.534;6.442;2023-06-19T10:11:44;5.43;;;3.10;;
62633;SDS011;48704;50.534;6.442;2023-06-19T10:14:16;4.40;;;3.15;;
62633;SDS011;48704;50.534;6.442;2023-06-19T10:16:43;4.35;;;2.85;;
62633;SDS011;48704;50.534;6.442;2023-06-19T10:19:15;4.63;;;3.00;;
62633;SDS011;48704;50.534;6.442;2023-06-19T10:21:44;6.65;;;3.35;;
62633;SDS011;48704;50.534;6.442;2023-06-19T10:24:19;6.60;;;2.75;;
62633;SDS011;48704;50.534;6.442;2023-06-19T10:27:01;4.20;;;2.77;;
62633;SDS011;48704;50.534;6.442;2023-06-19T10:29:37;6.50;;;3.10;;
62633;SDS011;48704;50.534;6.442;2023-06-19T10:32:06;5.95;;;3.00;;
62633;SDS011;48704;50.534;6.442;2023-06-19T10:34:34;4.78;;;2.80;;
62633;SDS011;48704;50.534;6.442;2023-06-19T10:37:01;5.53;;;3.38;;
62633;SDS011;48704;50.534;6.442;2023-06-19T10:39:26;5.00;;;3.30;;
62633;SDS011;48704;50.534;6.442;2023-06-19T10:41:51;5.75;;;2.90;;
62633;SDS011;48704;50.534;6.442;2023-06-19T10:44:16;6.07;;;3.20;;
62633;SDS011;48704;50.534;6.442;2023-06-19T10:46:42;6.80;;;2.92;;
62633;SDS011;48704;50.534;6.442;2023-06-19T10:49:07;7.65;;;3.30;;
62633;SDS011;48704;50.534;6.442;2023-06-19T10:51:38;5.93;;;3.55;;
62633;SDS011;48704;50.534;6.442;2023-06-19T10:54:04;6.28;;;3.15;;
62633;SDS011;48704;50.534;6.442;2023-06-19T10:56:30;4.60;;;3.00;;
62633;SDS011;48704;50.534;6.442;2023-06-19T10:59:00;6.15;;;3.53;;
62633;SDS011;48704;50.534;6.442;2023-06-19T11:03:59;6.32;;;3.42;;
62633;SDS011;48704;50.534;6.442;2023-06-19T11:06:24;6.00;;;3.03;;
62633;SDS011;48704;50.534;6.442;2023-06-19T11:08:52;4.47;;;3.00;;
62633;SDS011;48704;50.534;6.442;2023-06-19T11:11:18;7.13;;;3.30;;
62633;SDS011;48704;50.534;6.442;2023-06-19T11:13:45;5.05;;;3.15;;
62633;SDS011;48704;50.534;6.442;2023-06-19T11:16:10;4.63;;;2.67;;
62633;SDS011;48704;50.534;6.442;2023-06-19T11:18:35;4.35;;;2.40;;
62633;SDS011;48704;50.534;6.442;2023-06-19T11:21:01;3.85;;;2.80;;
62633;SDS011;48704;50.534;6.442;2023-06-19T11:23:28;5.35;;;2.50;;
62633;SDS011;48704;50.534;6.442;2023-06-19T11:25:54;4.63;;;2.83;;
62633;SDS011;48704;50.534;6.442;2023-06-19T11:28:27;4.60;;;2.78;;
62633;SDS011;48704;50.534;6.442;2023-06-19T11:31:01;5.40;;;3.28;;
62633;SDS011;48704;50.534;6.442;2023-06-19T11:33:27;5.88;;;3.08;;
62633;SDS011;48704;50.534;6.442;2023-06-19T11:35:54;4.97;;;3.15;;
62633;SDS011;48704;50.534;6.442;2023-06-19T11:38:24;8.32;;;3.20;;
62633;SDS011;48704;50.534;6.442;2023-06-19T11:40:51;5.20;;;3.20;;
62633;SDS011;48704;50.534;6.442;2023-06-19T11:43:30;3.67;;;2.67;;
62633;SDS011;48704;50.534;6.442;2023-06-19T11:46:01;5.00;;;2.95;;
62633;SDS011;48704;50.534;6.442;2023-06-19T11:48:27;6.35;;;2.90;;
62633;SDS011;48704;50.534;6.442;2023-06-19T11:50:53;8.13;;;3.10;;
62633;SDS011;48704;50.534;6.442;2023-06-19T11:53:19;3.72;;;2.53;;
62633;SDS011;48704;50.534;6.442;2023-06-19T11:55:45;4.85;;;3.00;;
62633;SDS011;48704;50.534;6.442;2023-06-19T11:58:11;4.60;;;3.08;;
62633;SDS011;48704;50.534;6.442;2023-06-19T12:00:36;4.10;;;2.70;;
62633;SDS011;48704;50.534;6.442;2023-06-19T12:03:02;4.63;;;3.15;;
62633;SDS011;48704;50.534;6.442;2023-06-19T12:05:28;4.90;;;3.10;;
62633;SDS011;48704;50.534;6.442;2023-06-19T12:07:53;4.15;;;2.92;;
62633;SDS011;48704;50.534;6.442;2023-06-19T12:10:19;8.52;;;3.00;;
62633;SDS011;48704;50.534;6.442;2023-06-19T12:12:44;4.85;;;2.88;;
62633;SDS011;48704;50.534;6.442;2023-06-19T12:15:09;6.28;;;3.22;;
62633;SDS011;48704;50.534;6.442;2023-06-19T12:17:35;4.68;;;3.20;;
62633;SDS011;48704;50.534;6.442;2023-06-19T12:20:01;4.55;;;2.90;;
62633;SDS011;48704;50.534;6.442;2023-06-19T12:22:30;6.03;;;3.38;;
62633;SDS011;48704;50.534;6.442;2023-06-19T12:24:56;5.30;;;3.53;;
62633;SDS011;48704;50.534;6.442;2023-06-19T12:27:21;7.95;;;3.15;;
62633;SDS011;48704;50.534;6.442;2023-06-19T12:29:47;6.78;;;3.25;;
62633;SDS011;48704;50.534;6.442;2023-06-19T12:32:12;5.50;;;3.43;;
62633;SDS011;48704;50.534;6.442;2023-06-19T12:34:37;7.28;;;3.80;;
62633;SDS011;48704;50.534;6.442;2023-06-19T12:37:03;4.93;;;3.20;;
62633;SDS011;48704;50.534;6.442;2023-06-19T12:39:28;6.55;;;3.30;;
62633;SDS011;48704;50.534;6.442;2023-06-19T12:41:53;7.55;;;3.50;;
62633;SDS011;48704;50.534;6.442;2023-06-19T12:44:20;5.03;;;3.35;;
62633;SDS011;48704;50.534;6.442;2023-06-19T12:46:46;4.82;;;3.00;;
62633;SDS011;48704;50.534;6.442;2023-06-19T12:49:12;4.95;;;3.20;;
62633;SDS011;48704;50.534;6.442;2023-06-19T12:51:37;4.37;;;2.90;;
62633;SDS011;48704;50.534;6.442;2023-06-19T12:54:02;4.30;;;3.07;;
62633;SDS011;48704;50.534;6.442;2023-06-19T12:56:27;6.18;;;2.65;;
62633;SDS011;48704;50.534;6.442;2023-06-19T12:58:53;5.10;;;3.10;;
62633;SDS011;48704;50.534;6.442;2023-06-19T13:01:18;5.97;;;3.03;;
62633;SDS011;48704;50.534;6.442;2023-06-19T13:03:43;6.38;;;3.38;;
62633;SDS011;48704;50.534;6.442;2023-06-19T13:06:09;4.75;;;2.97;;
62633;SDS011;48704;50.534;6.442;2023-06-19T13:08:34;5.90;;;2.90;;
62633;SDS011;48704;50.534;6.442;2023-06-19T13:10:59;5.63;;;2.92;;
62633;SDS011;48704;50.534;6.442;2023-06-19T13:13:25;4.43;;;3.15;;
62633;SDS011;48704;50.534;6.442;2023-06-19T13:15:50;5.65;;;3.03;;
62633;SDS011;48704;50.534;6.442;2023-06-19T13:18:17;5.25;;;3.33;;
62633;SDS011;48704;50.534;6.442;2023-06-19T13:20:43;4.43;;;2.70;;
62633;SDS011;48704;50.534;6.442;2023-06-19T13:23:10;4.18;;;2.70;;
62633;SDS011;48704;50.534;6.442;2023-06-19T13:25:35;5.05;;;3.17;;
62633;SDS011;48704;50.534;6.442;2023-06-19T13:28:00;5.93;;;3.33;;
62633;SDS011;48704;50.534;6.442;2023-06-19T13:30:26;6.68;;;2.97;;
62633;SDS011;48704;50.534;6.442;2023-06-19T13:32:51;4.13;;;2.47;;
62633;SDS011;48704;50.534;6.442;2023-06-19T13:35:16;4.70;;;2.60;;
62633;SDS011;48704;50.534;6.442;2023-06-19T13:37:42;4.38;;;2.72;;
62633;SDS011;48704;50.534;6.442;2023-06-19T13:40:07;4.18;;;2.47;;
62633;SDS011;48704;50.534;6.442;2023-06-19T13:42:33;4.75;;;2.63;;
62633;SDS011;48704;50.534;6.442;2023-06-19T13:45:00;5.65;;;3.00;;
62633;SDS011;48704;50.534;6.442;2023-06-19T13:47:26;4.50;;;2.90;;
62633;SDS011;48704;50.534;6.442;2023-06-19T13:49:52;5.25;;;3.08;;
62633;SDS011;48704;50.534;6.442;2023-06-19T13:52:18;5.03;;;2.50;;
62633;SDS011;48704;50.534;6.442;2023-06-19T13:54:44;4.72;;;3.08;;
62633;SDS011;48704;50.534;6.442;2023-06-19T13:57:09;4.82;;;3.03;;
62633;SDS011;48704;50.534;6.442;2023-06-19T13:59:35;4.50;;;2.78;;
62633;SDS011;48704;50.534;6.442;2023-06-19T14:02:00;4.97;;;2.80;;
62633;SDS011;48704;50.534;6.442;2023-06-19T14:04:26;5.03;;;2.60;;
62633;SDS011;48704;50.534;6.442;2023-06-19T14:06:51;6.28;;;2.95;;
62633;SDS011;48704;50.534;6.442;2023-06-19T14:09:17;4.90;;;3.20;;
62633;SDS011;48704;50.534;6.442;2023-06-19T14:11:42;5.80;;;2.90;;
62633;SDS011;48704;50.534;6.442;2023-06-19T14:14:09;3.80;;;2.50;;
62633;SDS011;48704;50.534;6.442;2023-06-19T14:16:34;4.65;;;2.72;;
62633;SDS011;48704;50.534;6.442;2023-06-19T14:18:59;4.45;;;3.00;;
62633;SDS011;48704;50.534;6.442;2023-06-19T14:21:25;5.00;;;2.70;;
62633;SDS011;48704;50.534;6.442;2023-06-19T14:23:50;7.05;;;2.97;;
62633;SDS011;48704;50.534;6.442;2023-06-19T14:26:16;5.68;;;3.22;;
62633;SDS011;48704;50.534;6.442;2023-06-19T14:28:41;3.95;;;2.90;;
62633;SDS011;48704;50.534;6.442;2023-06-19T14:31:07;4.88;;;3.03;;
62633;SDS011;48704;50.534;6.442;2023-06-19T14:33:32;4.40;;;2.90;;
62633;SDS011;48704;50.534;6.442;2023-06-19T14:35:59;5.63;;;3.22;;
62633;SDS011;48704;50.534;6.442;2023-06-19T14:38:25;5.93;;;3.08;;
62633;SDS011;48704;50.534;6.442;2023-06-19T14:40:52;4.18;;;2.78;;
62633;SDS011;48704;50.534;6.442;2023-06-19T14:43:18;4.18;;;2.92;;
62633;SDS011;48704;50.534;6.442;2023-06-19T14:45:43;4.50;;;2.50;;
62633;SDS011;48704;50.534;6.442;2023-06-19T14:48:09;4.70;;;2.97;;